createdAt,value
2019-03-13T00:00:18.373Z,0.67
2019-03-13T00:02:52.116Z,0.80
2019-03-13T00:05:24.239Z,0.73
2019-03-13T00:07:56.370Z,0.70
2019-03-13T00:10:28.494Z,0.73
2019-03-13T00:13:00.619Z,1.10
2019-03-13T00:15:32.739Z,0.70
2019-03-13T00:18:04.863Z,0.90
2019-03-13T00:20:36.988Z,0.67
2019-03-13T00:23:09.120Z,0.80
2019-03-13T00:25:41.245Z,0.93
2019-03-13T00:28:13.421Z,0.70
2019-03-13T00:30:45.501Z,0.60
2019-03-13T00:33:17.721Z,0.90
2019-03-13T00:35:49.846Z,0.93
2019-03-13T00:38:21.970Z,0.90
2019-03-13T00:40:54.091Z,1.27
2019-03-13T00:43:26.232Z,0.80
2019-03-13T00:45:58.349Z,0.87
2019-03-13T00:48:30.488Z,0.53
2019-03-13T00:51:02.611Z,0.97
2019-03-13T00:53:34.738Z,0.80
2019-03-13T00:56:06.869Z,0.90
2019-03-13T00:58:39.016Z,1.00
2019-03-13T01:01:11.141Z,0.70
2019-03-13T01:03:43.342Z,1.00
2019-03-13T01:06:15.467Z,0.70
2019-03-13T01:08:47.595Z,0.90
2019-03-13T01:11:19.718Z,0.70
2019-03-13T01:13:51.845Z,1.30
2019-03-13T01:16:23.972Z,1.00
2019-03-13T01:18:56.102Z,1.00
2019-03-13T01:21:28.235Z,0.83
2019-03-13T01:24:00.358Z,1.00
2019-03-13T01:26:32.489Z,0.80
2019-03-13T01:29:04.617Z,0.73
2019-03-13T01:31:36.747Z,1.00
2019-03-13T01:34:08.871Z,0.60
2019-03-13T01:36:40.997Z,0.80
2019-03-13T01:39:13.134Z,0.67
2019-03-13T01:41:45.263Z,0.87
2019-03-13T01:44:17.380Z,1.10
2019-03-13T01:46:49.513Z,0.87
2019-03-13T01:49:21.634Z,1.10
2019-03-13T01:51:53.762Z,1.03
2019-03-13T01:54:25.892Z,0.80
2019-03-13T01:56:58.019Z,1.10
2019-03-13T01:59:30.152Z,0.80
2019-03-13T02:02:02.602Z,0.90
2019-03-13T02:04:34.712Z,0.83
2019-03-13T02:07:06.841Z,1.00
2019-03-13T02:09:38.973Z,0.80
2019-03-13T02:12:11.131Z,0.90
2019-03-13T02:14:43.264Z,1.27
2019-03-13T02:17:15.388Z,0.87
2019-03-13T02:19:49.860Z,0.97
2019-03-13T02:22:21.352Z,0.90
2019-03-13T02:24:54.308Z,0.90
2019-03-13T02:27:26.589Z,0.80
2019-03-13T02:29:58.723Z,1.03
2019-03-13T02:32:30.845Z,0.87
2019-03-13T02:35:02.978Z,1.20
2019-03-13T02:37:36.481Z,1.10
2019-03-13T02:40:08.885Z,0.97
2019-03-13T02:42:41.021Z,1.27
2019-03-13T02:45:13.138Z,1.60
2019-03-13T02:47:45.287Z,1.30
2019-03-13T02:50:17.403Z,1.20
2019-03-13T02:52:49.531Z,1.10
2019-03-13T02:55:21.643Z,1.07
2019-03-13T02:57:53.785Z,0.97
2019-03-13T03:00:25.910Z,1.50
2019-03-13T03:02:58.042Z,1.13
2019-03-13T03:05:30.171Z,1.13
2019-03-13T03:08:02.306Z,1.17
2019-03-13T03:10:34.423Z,1.37
2019-03-13T03:13:06.567Z,1.30
2019-03-13T03:15:38.703Z,1.17
2019-03-13T03:18:10.841Z,1.53
2019-03-13T03:20:42.964Z,1.33
2019-03-13T03:23:15.097Z,1.20
2019-03-13T03:25:47.238Z,1.40
2019-03-13T03:28:19.385Z,1.27
2019-03-13T03:30:51.499Z,1.03
2019-03-13T03:33:23.645Z,1.53
2019-03-13T03:35:55.761Z,1.27
2019-03-13T03:38:27.890Z,1.50
2019-03-13T03:41:00.031Z,1.60
2019-03-13T03:43:40.024Z,1.20
2019-03-13T03:46:05.999Z,1.43
2019-03-13T03:48:38.099Z,1.10
2019-03-13T03:51:10.228Z,1.13
2019-03-13T03:53:42.379Z,1.43
2019-03-13T03:56:14.511Z,1.60
2019-03-13T03:58:46.631Z,1.63
2019-03-13T04:01:18.801Z,1.50
2019-03-13T04:03:50.902Z,1.73
2019-03-13T04:06:23.028Z,1.47
2019-03-13T04:08:55.159Z,1.53
2019-03-13T04:11:27.283Z,1.67
2019-03-13T04:13:59.402Z,1.50
2019-03-13T04:16:31.530Z,1.70
2019-03-13T04:19:03.661Z,1.60
2019-03-13T04:21:35.787Z,1.57
2019-03-13T04:24:07.913Z,1.50
2019-03-13T04:26:40.043Z,1.47
2019-03-13T04:29:12.162Z,1.50
2019-03-13T04:31:44.297Z,1.27
2019-03-13T04:34:16.435Z,1.67
2019-03-13T04:36:48.563Z,1.67
2019-03-13T04:39:20.691Z,1.67
2019-03-13T04:41:52.826Z,1.83
2019-03-13T04:44:25.351Z,1.77
2019-03-13T04:46:57.489Z,1.40
2019-03-13T04:49:29.622Z,1.50
2019-03-13T04:52:01.750Z,1.60
2019-03-13T04:54:33.867Z,1.90
2019-03-13T04:57:05.985Z,1.97
2019-03-13T04:59:38.110Z,1.43
2019-03-13T05:02:10.239Z,2.03
2019-03-13T05:04:42.360Z,1.80
2019-03-13T05:07:14.494Z,2.03
2019-03-13T05:09:46.612Z,1.77
2019-03-13T05:12:18.735Z,1.67
2019-03-13T05:14:50.931Z,1.90
2019-03-13T05:17:23.062Z,1.60
2019-03-13T05:19:55.182Z,1.80
2019-03-13T05:22:27.306Z,2.00
2019-03-13T05:24:59.438Z,2.53
2019-03-13T05:27:31.559Z,2.20
2019-03-13T05:30:03.716Z,2.27
2019-03-13T05:32:36.821Z,2.13
2019-03-13T05:35:08.955Z,2.43
2019-03-13T05:37:41.082Z,2.07
2019-03-13T05:40:13.283Z,2.63
2019-03-13T05:42:45.398Z,2.03
2019-03-13T05:45:17.575Z,2.27
2019-03-13T05:47:49.703Z,2.00
2019-03-13T05:50:21.838Z,2.10
2019-03-13T05:52:54.031Z,2.33
2019-03-13T05:55:26.151Z,2.30
2019-03-13T05:57:58.276Z,1.73
2019-03-13T06:00:30.405Z,2.43
2019-03-13T06:03:03.610Z,2.47
2019-03-13T06:05:35.739Z,1.80
2019-03-13T06:08:07.871Z,2.03
2019-03-13T06:10:40.002Z,2.40
2019-03-13T06:13:12.136Z,2.27
2019-03-13T06:15:44.256Z,2.17
2019-03-13T06:18:16.389Z,2.63
2019-03-13T06:20:48.516Z,2.33
2019-03-13T06:23:21.084Z,2.07
2019-03-13T06:25:53.213Z,1.90
2019-03-13T06:28:26.316Z,2.30
2019-03-13T06:30:58.434Z,2.10
2019-03-13T06:33:30.595Z,2.17
2019-03-13T06:36:02.704Z,2.00
2019-03-13T06:38:34.836Z,2.00
2019-03-13T06:41:06.951Z,2.40
2019-03-13T06:43:39.078Z,2.30
2019-03-13T06:46:11.212Z,2.57
2019-03-13T06:48:43.331Z,2.63
2019-03-13T06:51:15.463Z,2.80
2019-03-13T06:53:47.584Z,2.87
2019-03-13T06:56:19.713Z,2.83
2019-03-13T06:58:51.851Z,2.53
2019-03-13T07:01:23.986Z,3.07
2019-03-13T07:03:56.116Z,2.50
2019-03-13T07:06:28.256Z,2.83
2019-03-13T07:09:00.380Z,2.13
2019-03-13T07:11:34.123Z,2.13
2019-03-13T07:14:06.251Z,2.30
2019-03-13T07:16:38.373Z,2.43
2019-03-13T07:19:10.511Z,2.27
2019-03-13T07:21:42.643Z,2.80
2019-03-13T07:24:14.762Z,2.80
2019-03-13T07:26:46.892Z,2.40
2019-03-13T07:29:19.027Z,2.77
2019-03-13T07:31:51.154Z,2.77
2019-03-13T07:34:23.280Z,2.33
2019-03-13T07:36:55.408Z,3.07
2019-03-13T07:39:27.542Z,2.17
2019-03-13T07:41:59.669Z,2.43
2019-03-13T07:44:31.799Z,2.70
2019-03-13T07:47:03.935Z,2.63
2019-03-13T07:49:36.056Z,3.80
2019-03-13T07:52:08.199Z,3.70
2019-03-13T07:54:40.314Z,3.70
2019-03-13T07:57:12.449Z,3.83
2019-03-13T07:59:44.581Z,3.50
2019-03-13T08:02:16.704Z,3.30
2019-03-13T08:04:48.831Z,3.43
2019-03-13T08:07:20.955Z,3.93
2019-03-13T08:09:53.087Z,3.07
2019-03-13T08:12:25.232Z,4.30
2019-03-13T08:14:57.364Z,4.57
2019-03-13T08:17:29.474Z,4.10
2019-03-13T08:20:01.607Z,3.83
2019-03-13T08:22:33.995Z,3.93
2019-03-13T08:25:08.041Z,3.97
2019-03-13T08:27:39.886Z,4.03
2019-03-13T08:30:12.030Z,3.80
2019-03-13T08:32:44.148Z,3.63
2019-03-13T08:35:16.276Z,3.47
2019-03-13T08:37:48.677Z,3.53
2019-03-13T08:40:20.809Z,3.37
2019-03-13T08:42:52.940Z,3.67
2019-03-13T08:45:25.067Z,4.43
2019-03-13T08:47:57.201Z,3.40
2019-03-13T08:50:29.330Z,3.40
2019-03-13T08:53:01.456Z,3.80
2019-03-13T08:55:33.589Z,3.20
2019-03-13T08:58:05.728Z,3.30
2019-03-13T09:00:37.849Z,2.80
2019-03-13T09:03:09.981Z,2.93
2019-03-13T09:05:42.113Z,2.87
2019-03-13T09:08:14.238Z,3.30
2019-03-13T09:10:46.377Z,3.00
2019-03-13T09:13:18.528Z,3.37
2019-03-13T09:15:50.643Z,3.73
2019-03-13T09:18:22.763Z,4.00
2019-03-13T09:20:55.960Z,3.60
2019-03-13T09:23:28.091Z,3.77
2019-03-13T09:26:00.218Z,4.47
2019-03-13T09:28:32.349Z,4.63
2019-03-13T09:31:04.489Z,3.87
2019-03-13T09:33:37.603Z,4.47
2019-03-13T09:36:09.739Z,4.70
2019-03-13T09:38:41.872Z,4.20
2019-03-13T09:41:14.011Z,3.83
2019-03-13T09:43:46.140Z,3.70
2019-03-13T09:46:18.272Z,3.87
2019-03-13T09:48:50.400Z,3.50
2019-03-13T09:51:22.519Z,3.50
2019-03-13T09:53:54.646Z,3.87
2019-03-13T09:56:26.790Z,3.53
2019-03-13T09:58:59.884Z,3.93
2019-03-13T10:01:32.021Z,3.63
2019-03-13T10:04:04.150Z,3.37
2019-03-13T10:06:36.555Z,3.40
2019-03-13T10:09:08.684Z,3.53
2019-03-13T10:11:40.819Z,3.33
2019-03-13T10:14:12.950Z,3.03
2019-03-13T10:16:45.092Z,3.53
2019-03-13T10:19:17.218Z,3.67
2019-03-13T10:21:49.360Z,3.13
2019-03-13T10:24:21.502Z,3.10
2019-03-13T10:26:53.639Z,3.00
2019-03-13T10:29:25.772Z,2.93
2019-03-13T10:31:57.907Z,3.43
2019-03-13T10:34:30.391Z,3.33
2019-03-13T10:37:02.534Z,3.33
2019-03-13T10:39:34.647Z,2.80
2019-03-13T10:42:06.779Z,3.33
2019-03-13T10:44:38.910Z,2.97
2019-03-13T10:47:11.038Z,3.10
2019-03-13T10:49:43.175Z,3.70
2019-03-13T10:52:15.314Z,3.17
2019-03-13T10:54:47.448Z,2.50
2019-03-13T10:57:19.575Z,2.80
2019-03-13T10:59:51.701Z,2.87
2019-03-13T11:02:23.836Z,2.93
2019-03-13T11:04:55.967Z,2.97
2019-03-13T11:07:28.885Z,2.27
2019-03-13T11:10:01.000Z,2.60
2019-03-13T11:12:33.699Z,2.73
2019-03-13T11:15:05.835Z,2.63
2019-03-13T11:17:37.963Z,3.00
2019-03-13T11:20:10.101Z,2.33
2019-03-13T11:22:42.219Z,2.50
2019-03-13T11:25:14.344Z,2.47
2019-03-13T11:27:46.475Z,2.80
2019-03-13T11:30:20.671Z,2.23
2019-03-13T11:32:52.681Z,2.80
2019-03-13T11:35:24.813Z,2.43
2019-03-13T11:37:56.957Z,2.40
2019-03-13T11:40:29.070Z,2.30
2019-03-13T11:43:01.198Z,2.90
2019-03-13T11:45:34.394Z,2.90
2019-03-13T11:48:06.528Z,2.63
2019-03-13T11:50:38.653Z,2.17
2019-03-13T11:53:10.778Z,2.47
2019-03-13T11:55:44.727Z,2.00
2019-03-13T11:58:16.732Z,2.47
2019-03-13T12:00:48.853Z,2.03
2019-03-13T12:03:20.983Z,2.87
2019-03-13T12:05:53.109Z,2.90
2019-03-13T12:08:25.230Z,2.30
2019-03-13T12:10:57.370Z,2.70
2019-03-13T12:13:29.501Z,2.20
2019-03-13T12:16:01.631Z,2.30
2019-03-13T12:18:33.757Z,2.60
2019-03-13T12:21:05.889Z,2.47
2019-03-13T12:23:38.016Z,2.80
2019-03-13T12:26:10.152Z,2.97
2019-03-13T12:28:42.275Z,2.00
2019-03-13T12:31:14.409Z,3.00
2019-03-13T12:33:46.549Z,2.60
2019-03-13T12:36:18.700Z,2.73
2019-03-13T12:38:50.823Z,3.30
2019-03-13T12:41:22.939Z,3.30
2019-03-13T12:43:55.093Z,3.47
2019-03-13T12:46:27.184Z,3.90
2019-03-13T12:48:59.314Z,3.53
2019-03-13T12:51:31.448Z,3.40
2019-03-13T12:54:03.580Z,3.80
2019-03-13T12:56:35.703Z,4.07
2019-03-13T12:59:07.828Z,4.17
2019-03-13T13:01:39.956Z,4.10
2019-03-13T13:04:12.103Z,4.13
2019-03-13T13:06:44.221Z,3.60
2019-03-13T13:09:16.355Z,4.13
2019-03-13T13:11:48.489Z,4.20
2019-03-13T13:14:20.626Z,4.13
2019-03-13T13:16:52.744Z,3.80
2019-03-13T13:19:24.889Z,3.40
2019-03-13T13:21:57.008Z,4.33
2019-03-13T13:24:29.148Z,3.77
2019-03-13T13:27:01.269Z,3.67
2019-03-13T13:29:33.392Z,4.10
2019-03-13T13:32:05.527Z,4.30
2019-03-13T13:34:37.688Z,3.80
2019-03-13T13:37:09.818Z,3.97
2019-03-13T13:39:41.959Z,3.93
2019-03-13T13:42:14.085Z,3.37
2019-03-13T13:44:46.224Z,4.10
2019-03-13T13:47:18.346Z,3.90
2019-03-13T13:49:59.553Z,3.60
2019-03-13T13:52:24.293Z,2.97
2019-03-13T13:54:56.415Z,4.50
2019-03-13T13:57:28.548Z,3.53
2019-03-13T14:00:00.680Z,3.27
2019-03-13T14:02:32.799Z,3.37
2019-03-13T14:05:04.929Z,4.07
2019-03-13T14:07:37.065Z,3.97
2019-03-13T14:10:09.203Z,3.07
2019-03-13T14:12:41.326Z,3.33
2019-03-13T14:15:13.457Z,3.17
2019-03-13T14:17:45.586Z,3.20
2019-03-13T14:20:17.725Z,3.07
2019-03-13T14:22:49.854Z,3.30
2019-03-13T14:25:21.985Z,3.43
2019-03-13T14:27:54.116Z,2.87
2019-03-13T14:30:26.242Z,2.80
2019-03-13T14:32:58.372Z,2.93
2019-03-13T14:35:30.501Z,3.33
2019-03-13T14:38:02.638Z,3.10
2019-03-13T14:40:34.775Z,3.27
2019-03-13T14:43:06.905Z,2.77
2019-03-13T14:45:39.035Z,3.77
2019-03-13T14:48:11.167Z,3.37
2019-03-13T14:50:43.301Z,3.10
2019-03-13T14:53:15.776Z,2.80
2019-03-13T14:55:47.912Z,3.60
2019-03-13T14:58:20.043Z,3.80
2019-03-13T15:00:52.180Z,4.10
2019-03-13T15:03:25.276Z,3.60
2019-03-13T15:05:57.407Z,3.37
2019-03-13T15:08:29.546Z,3.67
2019-03-13T15:11:01.673Z,3.50
2019-03-13T15:13:34.774Z,4.00
2019-03-13T15:16:06.902Z,4.10
2019-03-13T15:18:39.030Z,4.07
2019-03-13T15:21:11.463Z,3.90
2019-03-13T15:23:43.588Z,4.33
2019-03-13T15:26:15.722Z,4.23
2019-03-13T15:28:47.859Z,4.77
2019-03-13T15:31:19.984Z,4.37
2019-03-13T15:33:52.122Z,4.07
2019-03-13T15:36:24.250Z,4.17
2019-03-13T15:38:56.378Z,4.43
2019-03-13T15:41:28.513Z,4.00
2019-03-13T15:44:00.641Z,4.47
2019-03-13T15:46:33.020Z,4.20
2019-03-13T19:29:56.729Z,4.60
2019-03-13T19:32:29.364Z,5.60
2019-03-13T19:35:05.399Z,4.33
2019-03-13T19:37:38.627Z,4.33
2019-03-13T19:40:11.973Z,4.73
2019-03-13T19:42:44.528Z,3.50
2019-03-13T19:45:17.069Z,3.93
2019-03-13T19:47:50.264Z,4.27
2019-03-13T19:50:23.076Z,3.80
2019-03-13T19:52:55.498Z,3.30
2019-03-13T19:55:27.849Z,3.90
2019-03-13T19:58:01.323Z,3.63
2019-03-13T20:00:34.334Z,3.73
2019-03-13T20:03:06.909Z,4.37
2019-03-13T20:05:45.295Z,4.97
2019-03-13T20:08:14.230Z,3.73
2019-03-13T20:10:47.071Z,3.40
2019-03-13T20:13:19.400Z,3.27
2019-03-13T20:15:52.123Z,3.37
2019-03-13T20:18:24.453Z,3.43
2019-03-13T20:20:56.759Z,4.47
2019-03-13T20:23:29.170Z,3.37
2019-03-13T20:26:01.489Z,4.57
2019-03-13T20:28:34.084Z,4.40
2019-03-13T20:31:06.982Z,4.63
2019-03-13T20:33:39.507Z,4.57
2019-03-13T20:36:12.126Z,5.23
2019-03-13T20:38:47.166Z,3.53
2019-03-13T20:41:18.803Z,3.60
2019-03-13T20:43:51.141Z,4.27
2019-03-13T20:46:23.522Z,4.73
2019-03-13T20:48:55.935Z,4.60
2019-03-13T20:51:28.162Z,5.10
2019-03-13T20:54:00.540Z,5.63
2019-03-13T20:56:33.042Z,5.03
2019-03-13T20:59:05.808Z,6.03
2019-03-13T21:01:38.120Z,4.53
2019-03-13T21:04:10.775Z,3.80
2019-03-13T21:06:43.366Z,5.53
2019-03-13T21:09:15.793Z,5.03
2019-03-13T21:11:48.562Z,3.77
2019-03-13T21:14:21.127Z,4.50
2019-03-13T21:16:53.445Z,5.37
2019-03-13T21:19:25.707Z,4.67
2019-03-13T21:21:58.067Z,4.17
2019-03-13T21:24:30.419Z,4.40
2019-03-13T21:27:02.819Z,4.07
2019-03-13T21:29:35.713Z,4.30
2019-03-13T21:32:08.038Z,4.83
2019-03-13T21:34:40.356Z,4.63
2019-03-13T21:37:12.587Z,4.40
2019-03-13T21:39:45.140Z,4.83
2019-03-13T21:42:17.515Z,5.17
2019-03-13T21:44:49.993Z,5.67
2019-03-13T21:47:22.315Z,4.17
2019-03-13T21:49:54.684Z,5.17
2019-03-13T21:52:27.743Z,5.23
2019-03-13T21:55:00.618Z,4.70
2019-03-13T21:57:33.601Z,4.67
2019-03-13T22:00:06.266Z,6.40
2019-03-13T22:02:40.756Z,4.90
2019-03-13T22:05:24.901Z,5.57
2019-03-13T22:07:48.431Z,6.53
2019-03-13T22:10:20.775Z,6.27
2019-03-13T22:12:54.367Z,6.27
2019-03-13T22:15:26.759Z,6.20
2019-03-13T22:17:59.097Z,6.30
2019-03-13T22:20:32.452Z,5.77
2019-03-13T22:23:04.780Z,6.57
2019-03-13T22:25:37.166Z,6.07
2019-03-13T22:28:09.528Z,4.83
2019-03-13T22:30:41.891Z,5.13
2019-03-13T22:33:16.663Z,5.30
2019-03-13T22:35:49.039Z,5.27
2019-03-13T22:38:21.399Z,5.13
2019-03-13T22:40:54.909Z,5.80
2019-03-13T22:43:27.498Z,5.37
2019-03-13T22:45:59.812Z,5.63
2019-03-13T22:48:32.413Z,5.00
2019-03-13T22:51:04.978Z,6.40
2019-03-13T22:53:37.320Z,4.73
2019-03-13T22:56:10.860Z,5.03
2019-03-13T22:58:44.847Z,6.10
2019-03-13T23:01:17.488Z,4.60
2019-03-13T23:03:51.392Z,4.40
2019-03-13T23:06:23.930Z,5.73
2019-03-13T23:08:56.198Z,5.13
2019-03-13T23:11:28.581Z,4.67
2019-03-13T23:14:01.078Z,4.23
2019-03-13T23:16:34.235Z,5.13
2019-03-13T23:19:06.548Z,5.80
2019-03-13T23:21:39.072Z,4.47
2019-03-13T23:24:11.150Z,4.40
2019-03-13T23:26:43.511Z,4.87
2019-03-13T23:29:16.040Z,4.10
2019-03-13T23:31:49.043Z,4.03
2019-03-13T23:34:21.366Z,4.47
2019-03-13T23:36:53.857Z,5.07
2019-03-13T23:39:26.322Z,4.27
2019-03-13T23:41:58.690Z,4.30
2019-03-13T23:44:32.597Z,4.10
2019-03-13T23:47:06.146Z,4.37
2019-03-13T23:49:40.096Z,4.13
2019-03-13T23:52:12.783Z,5.27
2019-03-13T23:54:45.203Z,5.37
2019-03-13T23:57:17.944Z,5.07
2019-03-13T23:59:50.282Z,5.23
